Time;durP1;ratioP1;P1;durP2;ratioP2;P2;SDS_P1;SDS_P2;PMS_P1;PMS_P2;Temp;Humidity;BMP_temperature;BMP_pressure;BME280_temperature;BME280_humidity;BME280_pressure;Samples;Min_cycle;Max_cycle;Signal;HPM_P1;HPM_P2
2022/10/19 00:01:08;;;;;;;14.30;2.25;;;13.40;99.90;;;;;;4964602;28;20094;-73
2022/10/19 00:03:34;;;;;;;12.00;2.17;;;13.50;99.90;;;;;;4965530;28;20042;-73
2022/10/19 00:06:09;;;;;;;15.05;2.20;;;13.50;99.90;;;;;;4966904;28;20062;-73
2022/10/19 00:08:35;;;;;;;12.85;2.38;;;13.50;99.90;;;;;;4965938;28;20038;-73
2022/10/19 00:11:01;;;;;;;12.95;1.83;;;13.60;99.90;;;;;;4967459;28;20046;-73
2022/10/19 00:13:26;;;;;;;11.95;1.50;;;13.60;99.90;;;;;;4965580;28;20042;-73
2022/10/19 00:15:52;;;;;;;13.88;1.60;;;13.60;99.90;;;;;;4965961;28;20038;-73
2022/10/19 00:18:17;;;;;;;11.05;2.30;;;13.60;99.90;;;;;;4968541;28;20041;-74
2022/10/19 00:20:43;;;;;;;16.58;2.20;;;13.60;99.90;;;;;;4969680;28;20041;-73
2022/10/19 00:23:09;;;;;;;13.40;2.03;;;13.60;99.90;;;;;;4971203;28;20031;-73
2022/10/19 00:25:35;;;;;;;11.52;1.83;;;13.60;99.90;;;;;;4968969;28;20116;-73
2022/10/19 00:28:01;;;;;;;13.27;2.00;;;13.60;99.90;;;;;;4970441;28;20378;-73
2022/10/19 00:30:27;;;;;;;11.82;1.88;;;13.60;99.90;;;;;;4967024;28;20037;-73
2022/10/19 00:32:52;;;;;;;8.55;1.60;;;13.60;99.90;;;;;;4969650;28;20531;-75
2022/10/19 00:35:18;;;;;;;16.13;2.00;;;13.60;99.90;;;;;;4969137;28;20059;-74
2022/10/19 00:37:44;;;;;;;11.30;2.00;;;13.60;99.90;;;;;;4969862;28;20027;-73
2022/10/19 00:40:10;;;;;;;13.35;2.30;;;13.60;99.90;;;;;;4970303;28;20035;-74
2022/10/19 00:42:36;;;;;;;11.93;1.65;;;13.60;99.90;;;;;;4969593;28;20066;-74
2022/10/19 00:45:06;;;;;;;13.40;2.10;;;13.60;99.90;;;;;;4961196;28;20141;-73
2022/10/19 00:47:32;;;;;;;10.75;1.70;;;13.50;99.90;;;;;;4969562;28;20042;-73
2022/10/19 00:49:58;;;;;;;11.85;2.05;;;13.50;99.90;;;;;;4970270;28;20501;-73
2022/10/19 00:52:25;;;;;;;14.30;2.28;;;13.50;99.90;;;;;;4951098;28;20031;-73
2022/10/19 00:54:52;;;;;;;14.88;2.47;;;13.50;99.90;;;;;;4951026;28;20030;-73
2022/10/19 00:57:19;;;;;;;12.52;2.10;;;13.50;99.90;;;;;;4970885;28;20034;-73
2022/10/19 00:59:46;;;;;;;10.30;1.88;;;13.50;99.90;;;;;;4972578;28;20030;-73
2022/10/19 01:02:12;;;;;;;12.40;1.67;;;13.50;99.90;;;;;;4969443;28;20035;-73
2022/10/19 01:04:43;;;;;;;10.07;2.28;;;13.50;99.90;;;;;;4970351;28;20034;-73
2022/10/19 01:07:09;;;;;;;11.50;1.80;;;13.40;99.90;;;;;;4970469;28;20043;-73
2022/10/19 01:09:35;;;;;;;13.93;2.10;;;13.50;99.90;;;;;;4967973;28;20027;-72
2022/10/19 01:12:25;;;;;;;13.32;2.40;;;13.40;99.90;;;;;;4970282;28;20042;-72
2022/10/19 01:15:15;;;;;;;11.40;2.00;;;13.40;99.90;;;;;;4964883;28;20034;-73
2022/10/19 01:17:46;;;;;;;14.02;2.10;;;13.50;99.90;;;;;;4969017;28;20031;-73
2022/10/19 01:20:46;;;;;;;14.77;1.95;;;13.40;99.90;;;;;;4969948;28;20031;-74
2022/10/19 01:23:17;;;;;;;11.27;1.92;;;13.50;99.90;;;;;;4964394;28;20556;-72
2022/10/19 01:26:05;;;;;;;14.10;2.28;;;13.40;99.90;;;;;;4966346;28;20409;-72
2022/10/19 01:28:55;;;;;;;12.00;2.25;;;13.50;99.90;;;;;;4968863;28;20105;-73
2022/10/19 01:31:32;;;;;;;10.30;1.85;;;13.40;99.90;;;;;;4967489;28;20047;-73
2022/10/19 01:34:03;;;;;;;9.15;1.98;;;13.40;99.90;;;;;;4955513;28;20037;-73
2022/10/19 01:36:59;;;;;;;12.43;2.08;;;13.40;99.90;;;;;;4969333;28;20375;-73
2022/10/19 01:39:33;;;;;;;14.48;2.00;;;13.30;99.90;;;;;;4969235;28;20038;-73
2022/10/19 01:42:05;;;;;;;12.85;2.33;;;13.30;99.90;;;;;;4970227;28;20039;-73
2022/10/19 01:44:59;;;;;;;14.45;2.30;;;13.20;99.90;;;;;;4961892;28;20035;-73
2022/10/19 01:47:50;;;;;;;12.82;2.13;;;13.20;99.90;;;;;;4962453;28;20047;-73
2022/10/19 01:50:54;;;;;;;14.95;2.33;;;13.20;99.90;;;;;;4962029;28;20070;-73
2022/10/19 01:53:21;;;;;;;10.73;2.03;;;13.20;99.90;;;;;;4959963;28;20466;-73
2022/10/19 01:55:50;;;;;;;10.02;2.35;;;13.20;99.90;;;;;;4969688;28;20065;-73
2022/10/19 01:58:21;;;;;;;13.05;1.75;;;13.20;99.90;;;;;;4967173;28;20049;-73
2022/10/19 02:00:50;;;;;;;12.50;2.55;;;13.20;99.90;;;;;;4969832;28;20126;-73
2022/10/19 02:03:17;;;;;;;14.27;2.40;;;13.10;99.90;;;;;;4963383;28;20058;-73
2022/10/19 02:05:44;;;;;;;13.18;2.00;;;13.10;99.90;;;;;;4949665;28;20402;-73
2022/10/19 02:08:18;;;;;;;13.32;2.33;;;13.10;99.90;;;;;;4965665;28;20055;-73
2022/10/19 02:10:45;;;;;;;10.73;2.20;;;13.10;99.90;;;;;;4969759;28;20128;-73
2022/10/19 02:13:14;;;;;;;10.70;1.75;;;13.10;99.90;;;;;;4963324;28;20066;-73
2022/10/19 02:15:42;;;;;;;17.42;3.10;;;13.10;99.90;;;;;;4967903;28;20090;-73
2022/10/19 02:18:12;;;;;;;10.02;2.30;;;13.00;99.90;;;;;;4968768;28;20097;-73
2022/10/19 02:20:38;;;;;;;13.52;2.30;;;13.00;99.90;;;;;;4963141;28;20126;-73
2022/10/19 02:23:06;;;;;;;14.48;2.22;;;13.00;99.90;;;;;;4960112;28;20514;-73
2022/10/19 02:25:33;;;;;;;11.48;2.10;;;13.00;99.90;;;;;;4965698;28;20035;-73
2022/10/19 02:28:00;;;;;;;11.55;2.38;;;13.00;99.90;;;;;;4968572;28;20035;-73
2022/10/19 02:30:26;;;;;;;7.10;1.70;;;13.00;99.90;;;;;;4968120;28;20058;-73
2022/10/19 02:32:52;;;;;;;10.73;2.08;;;13.00;99.90;;;;;;4945787;28;20774;-73
2022/10/19 02:35:17;;;;;;;12.02;2.00;;;13.00;99.90;;;;;;4967258;28;20059;-73
2022/10/19 02:37:43;;;;;;;9.98;2.08;;;13.00;99.90;;;;;;4966593;28;20050;-73
2022/10/19 02:40:10;;;;;;;11.05;2.20;;;12.90;99.90;;;;;;4968232;28;20396;-73
2022/10/19 02:42:43;;;;;;;15.00;2.65;;;12.90;99.90;;;;;;4967278;28;20054;-73
2022/10/19 02:45:21;;;;;;;13.52;2.05;;;12.90;99.90;;;;;;4967735;28;20788;-73
2022/10/19 02:47:54;;;;;;;10.35;2.08;;;12.90;99.90;;;;;;4967109;28;20043;-73
2022/10/19 02:50:21;;;;;;;10.48;2.45;;;12.90;99.90;;;;;;4968114;28;20045;-73
2022/10/19 02:52:47;;;;;;;13.95;2.85;;;12.80;99.90;;;;;;4965584;28;20165;-73
2022/10/19 02:55:12;;;;;;;14.65;2.53;;;12.90;99.90;;;;;;4947091;28;20118;-73
2022/10/19 02:57:38;;;;;;;16.38;3.10;;;12.80;99.90;;;;;;4967223;28;20386;-73
2022/10/19 03:00:05;;;;;;;15.65;3.53;;;12.80;99.90;;;;;;4968354;28;20390;-73
2022/10/19 03:02:30;;;;;;;16.65;3.50;;;12.80;99.90;;;;;;4967796;28;20045;-73
2022/10/19 03:04:56;;;;;;;18.40;3.33;;;12.80;99.90;;;;;;4968624;28;20054;-73
2022/10/19 03:07:22;;;;;;;16.35;3.50;;;12.80;99.90;;;;;;4950942;28;20494;-73
2022/10/19 03:09:48;;;;;;;14.27;3.25;;;12.80;99.90;;;;;;4967905;28;20061;-73
2022/10/19 03:12:14;;;;;;;16.90;3.42;;;12.80;99.90;;;;;;4967929;28;20046;-72
2022/10/19 03:14:40;;;;;;;13.77;3.92;;;12.80;99.90;;;;;;4963190;28;20113;-73
2022/10/19 03:17:05;;;;;;;11.73;3.88;;;12.80;99.90;;;;;;4944765;29;20470;-73
2022/10/19 03:19:31;;;;;;;17.80;3.83;;;12.80;99.90;;;;;;4965679;28;20043;-72
2022/10/19 03:21:57;;;;;;;16.95;4.50;;;12.80;99.90;;;;;;4968480;28;20030;-72
2022/10/19 03:24:22;;;;;;;17.13;4.03;;;12.80;99.90;;;;;;4968622;28;20035;-73
2022/10/19 03:26:48;;;;;;;17.38;4.13;;;12.80;99.90;;;;;;4950316;28;20042;-72
2022/10/19 03:29:14;;;;;;;17.02;4.25;;;12.90;99.90;;;;;;4965305;28;20038;-73
2022/10/19 03:31:39;;;;;;;15.23;4.85;;;12.90;99.90;;;;;;4966572;28;20022;-73
2022/10/19 03:34:05;;;;;;;13.55;4.35;;;12.90;99.90;;;;;;4966784;28;20379;-73
2022/10/19 03:36:33;;;;;;;16.42;3.90;;;12.90;99.90;;;;;;4952955;28;20043;-73
2022/10/19 03:39:01;;;;;;;18.25;5.05;;;12.90;99.90;;;;;;4965494;28;20032;-73
2022/10/19 03:41:28;;;;;;;18.15;5.50;;;12.90;99.90;;;;;;4968641;28;20051;-73
2022/10/19 03:43:55;;;;;;;15.35;4.90;;;12.90;99.90;;;;;;4951569;28;20038;-73
2022/10/19 03:46:21;;;;;;;15.88;4.55;;;12.90;99.90;;;;;;4967017;28;20039;-73
2022/10/19 03:48:47;;;;;;;13.57;4.80;;;12.90;99.90;;;;;;4967182;28;20105;-73
2022/10/19 03:51:16;;;;;;;20.90;5.32;;;13.00;99.90;;;;;;4965626;28;20049;-72
2022/10/19 03:53:42;;;;;;;15.13;5.53;;;13.00;99.90;;;;;;4946915;28;20031;-73
2022/10/19 03:56:19;;;;;;;17.10;5.15;;;13.00;99.90;;;;;;4947716;28;20042;-73
2022/10/19 03:58:47;;;;;;;18.98;6.18;;;13.00;99.90;;;;;;4965688;28;20097;-73
2022/10/19 04:01:15;;;;;;;16.63;5.55;;;13.00;99.90;;;;;;4966276;28;20027;-73
2022/10/19 04:03:41;;;;;;;18.98;5.65;;;13.00;99.90;;;;;;4965965;28;20058;-73
2022/10/19 04:06:11;;;;;;;18.50;6.13;;;13.00;99.90;;;;;;4967288;28;20043;-73
2022/10/19 04:08:37;;;;;;;18.65;6.07;;;13.00;99.90;;;;;;4965480;28;20090;-73
2022/10/19 04:11:07;;;;;;;16.95;6.60;;;13.00;99.90;;;;;;4968466;28;20042;-73
2022/10/19 04:13:33;;;;;;;15.82;5.18;;;13.10;99.90;;;;;;4966815;28;20043;-73
2022/10/19 04:16:00;;;;;;;15.98;5.80;;;13.10;99.90;;;;;;4966517;28;20113;-73
2022/10/19 04:18:25;;;;;;;18.48;6.13;;;13.10;99.90;;;;;;4967023;28;20062;-73
2022/10/19 04:20:55;;;;;;;16.17;5.35;;;13.10;99.90;;;;;;4967883;28;20107;-73
2022/10/19 04:23:21;;;;;;;16.25;6.07;;;13.10;99.90;;;;;;4950178;28;20038;-73
2022/10/19 04:25:47;;;;;;;21.45;6.65;;;13.10;99.90;;;;;;4951056;28;20065;-73
2022/10/19 04:28:12;;;;;;;20.08;5.78;;;13.10;99.90;;;;;;4966928;28;20090;-73
2022/10/19 04:30:38;;;;;;;19.35;6.25;;;13.10;99.90;;;;;;4963062;28;21995;-73
2022/10/19 04:33:03;;;;;;;22.00;6.72;;;13.20;99.90;;;;;;4966747;28;20042;-73
2022/10/19 04:35:29;;;;;;;20.95;6.93;;;13.20;99.90;;;;;;4962077;28;20798;-73
2022/10/19 04:37:55;;;;;;;20.45;7.10;;;13.20;99.90;;;;;;4963771;28;20038;-73
2022/10/19 04:40:20;;;;;;;18.85;6.75;;;13.20;99.90;;;;;;4964142;28;20527;-73
2022/10/19 04:42:46;;;;;;;21.25;7.60;;;13.20;99.90;;;;;;4943742;28;20027;-73
2022/10/19 04:45:11;;;;;;;17.92;7.32;;;13.20;99.90;;;;;;4966447;28;20552;-73
2022/10/19 04:47:37;;;;;;;23.63;7.22;;;13.20;99.90;;;;;;4963207;28;20047;-73
2022/10/19 04:50:03;;;;;;;19.23;7.15;;;13.20;99.90;;;;;;4965250;28;20038;-73
2022/10/19 04:52:29;;;;;;;25.33;7.82;;;13.20;99.90;;;;;;4965938;28;20037;-73
2022/10/19 04:54:55;;;;;;;24.27;7.57;;;13.10;99.90;;;;;;4966410;28;20574;-73
2022/10/19 04:57:21;;;;;;;23.92;7.60;;;13.10;99.90;;;;;;4965937;28;20034;-73
2022/10/19 04:59:46;;;;;;;19.80;7.43;;;13.20;99.90;;;;;;4964940;28;20035;-72
2022/10/19 05:02:12;;;;;;;21.15;6.93;;;13.20;99.90;;;;;;4946164;28;20039;-73
2022/10/19 05:04:37;;;;;;;23.23;7.88;;;13.20;99.90;;;;;;4963928;28;20118;-73
2022/10/19 05:07:03;;;;;;;18.40;8.15;;;13.20;99.90;;;;;;4946168;28;20050;-73
2022/10/19 05:09:29;;;;;;;21.55;8.23;;;13.10;99.90;;;;;;4968462;28;20026;-73
2022/10/19 05:11:54;;;;;;;20.33;8.30;;;13.10;99.90;;;;;;4968298;28;20605;-73
2022/10/19 05:14:20;;;;;;;21.65;8.40;;;13.10;99.90;;;;;;4969201;28;20750;-73
2022/10/19 05:16:45;;;;;;;20.80;8.32;;;13.10;99.90;;;;;;4950509;28;20636;-73
2022/10/19 05:19:14;;;;;;;21.92;7.95;;;13.10;99.90;;;;;;4969122;28;20069;-73
2022/10/19 05:21:40;;;;;;;19.95;7.70;;;13.20;99.90;;;;;;4949184;28;20030;-73
2022/10/19 05:24:06;;;;;;;19.75;7.15;;;13.10;99.90;;;;;;4966635;28;20045;-73
2022/10/19 05:26:31;;;;;;;22.65;7.45;;;13.20;99.90;;;;;;4968562;28;20129;-73
2022/10/19 05:29:01;;;;;;;19.95;7.32;;;13.20;99.90;;;;;;4967726;28;20047;-73
2022/10/19 05:31:29;;;;;;;19.10;6.82;;;13.10;99.90;;;;;;4952987;28;20456;-73
2022/10/19 05:33:55;;;;;;;19.10;7.25;;;13.10;99.90;;;;;;4966089;28;20038;-75
2022/10/19 05:36:24;;;;;;;16.70;6.50;;;13.20;99.90;;;;;;4962537;28;124933;-73
2022/10/19 05:38:51;;;;;;;16.77;6.13;;;13.20;99.90;;;;;;4968837;28;20030;-74
2022/10/19 05:41:17;;;;;;;19.50;6.78;;;13.20;99.90;;;;;;4947564;28;20580;-73
2022/10/19 05:43:43;;;;;;;20.27;6.43;;;13.20;99.90;;;;;;4969171;28;20049;-73
2022/10/19 05:46:12;;;;;;;18.40;5.97;;;13.10;99.90;;;;;;4969496;28;20049;-74
2022/10/19 05:48:38;;;;;;;12.73;5.07;;;13.10;99.90;;;;;;4952552;28;20035;-73
2022/10/19 05:51:06;;;;;;;18.80;5.07;;;13.20;99.90;;;;;;4966787;28;20035;-73
2022/10/19 05:53:32;;;;;;;18.60;5.07;;;13.10;99.90;;;;;;4970084;28;20043;-73
2022/10/19 05:55:58;;;;;;;14.10;4.63;;;13.20;99.90;;;;;;4969868;28;20047;-73
2022/10/19 05:58:24;;;;;;;12.45;4.95;;;13.10;99.90;;;;;;4969485;28;20038;-73
2022/10/19 06:00:55;;;;;;;16.20;4.90;;;13.10;99.90;;;;;;4965515;28;20031;-73
2022/10/19 06:03:21;;;;;;;15.48;4.88;;;13.10;99.90;;;;;;4966254;28;20173;-73
2022/10/19 06:05:51;;;;;;;16.73;4.80;;;13.10;99.90;;;;;;4969274;28;20723;-73
2022/10/19 06:08:17;;;;;;;18.55;5.03;;;13.10;99.90;;;;;;4968380;28;20101;-73
2022/10/19 06:10:43;;;;;;;16.70;4.30;;;13.10;99.90;;;;;;4965191;28;20567;-73
2022/10/19 06:13:10;;;;;;;13.63;4.68;;;13.20;99.90;;;;;;4970412;28;20045;-73
2022/10/19 06:15:38;;;;;;;17.13;4.45;;;13.10;99.90;;;;;;4967435;28;20066;-73
2022/10/19 06:18:06;;;;;;;16.95;5.05;;;13.20;99.90;;;;;;4967995;28;20556;-73
2022/10/19 06:20:34;;;;;;;16.58;5.20;;;13.20;99.90;;;;;;4967140;28;20054;-73
2022/10/19 06:23:00;;;;;;;12.60;4.82;;;13.20;99.90;;;;;;4964855;28;20035;-73
2022/10/19 06:25:26;;;;;;;14.05;5.07;;;13.20;99.90;;;;;;4966305;28;20081;-73
2022/10/19 06:27:52;;;;;;;17.17;5.50;;;13.20;99.90;;;;;;4967469;28;20054;-73
2022/10/19 06:30:17;;;;;;;15.13;4.95;;;13.20;99.90;;;;;;4970271;28;20409;-73
2022/10/19 06:32:43;;;;;;;16.08;5.35;;;13.20;99.90;;;;;;4971081;28;20034;-73
2022/10/19 06:35:09;;;;;;;13.70;5.60;;;13.30;99.90;;;;;;4971053;28;20387;-73
2022/10/19 06:37:34;;;;;;;16.00;5.35;;;13.30;99.90;;;;;;4952886;28;20031;-73
2022/10/19 06:40:00;;;;;;;15.40;5.45;;;13.30;99.90;;;;;;4973130;28;20030;-73
2022/10/19 06:42:26;;;;;;;18.90;5.13;;;13.30;99.90;;;;;;4970440;28;20030;-73
2022/10/19 06:44:51;;;;;;;15.52;4.78;;;13.20;99.90;;;;;;4969070;28;20046;-73
2022/10/19 06:47:17;;;;;;;12.82;5.20;;;13.20;99.90;;;;;;4953692;28;20066;-73
2022/10/19 06:49:43;;;;;;;18.40;5.28;;;13.30;99.90;;;;;;4963476;28;20069;-73
2022/10/19 06:52:09;;;;;;;17.73;5.40;;;13.30;99.90;;;;;;4960382;28;20074;-72
2022/10/19 06:54:34;;;;;;;15.23;5.13;;;13.30;99.90;;;;;;4969337;28;20066;-72
2022/10/19 06:57:00;;;;;;;14.15;5.63;;;13.30;99.90;;;;;;4968165;28;20165;-72
2022/10/19 06:59:25;;;;;;;15.95;5.63;;;13.30;99.90;;;;;;4970190;28;20039;-72
2022/10/19 07:01:51;;;;;;;16.58;6.22;;;13.30;99.90;;;;;;4968337;28;20027;-72
2022/10/19 07:04:17;;;;;;;16.75;5.47;;;13.40;99.90;;;;;;4969867;28;20556;-72
2022/10/19 07:06:42;;;;;;;13.75;5.25;;;13.40;99.90;;;;;;4967100;28;20089;-72
2022/10/19 07:09:08;;;;;;;17.65;6.47;;;13.40;99.90;;;;;;4974840;28;20373;-72
2022/10/19 07:11:33;;;;;;;14.82;5.60;;;13.40;99.90;;;;;;4973707;28;20050;-72
2022/10/19 07:13:59;;;;;;;17.08;5.85;;;13.50;99.90;;;;;;4976568;28;20042;-73
2022/10/19 07:16:25;;;;;;;15.65;5.47;;;13.50;99.90;;;;;;4970005;28;20469;-72
2022/10/19 07:18:52;;;;;;;13.60;5.00;;;13.50;99.90;;;;;;4965595;28;20035;-72
2022/10/19 07:21:18;;;;;;;17.30;5.18;;;13.50;99.90;;;;;;4964916;28;20038;-71
2022/10/19 07:23:48;;;;;;;14.80;4.90;;;13.50;99.90;;;;;;4968794;28;20361;-72
2022/10/19 07:26:18;;;;;;;20.88;5.22;;;13.60;99.90;;;;;;4969010;28;20048;-71
2022/10/19 07:28:44;;;;;;;;;;;13.60;99.90;;;;;;4960967;28;20035;-73
2022/10/19 07:31:12;;;;;;;15.13;4.38;;;13.70;99.90;;;;;;4967981;28;19914;-72
2022/10/19 07:33:38;;;;;;;17.48;5.15;;;13.80;99.90;;;;;;4967912;28;20070;-72
2022/10/19 07:36:06;;;;;;;12.18;4.57;;;13.80;99.90;;;;;;4968727;28;20074;-74
2022/10/19 07:38:32;;;;;;;16.42;5.18;;;13.90;99.90;;;;;;4968684;28;20540;-71
2022/10/19 07:41:11;;;;;;;18.13;5.45;;;14.00;99.90;;;;;;4968778;28;20093;-72
2022/10/19 07:43:38;;;;;;;15.82;5.00;;;14.00;99.90;;;;;;4967149;28;20034;-72
2022/10/19 07:46:06;;;;;;;14.45;5.88;;;14.10;99.90;;;;;;4968078;28;20047;-72
2022/10/19 07:48:32;;;;;;;15.48;5.43;;;14.20;99.90;;;;;;4969032;28;20393;-71
2022/10/19 07:51:01;;;;;;;15.27;5.57;;;14.40;99.90;;;;;;4951546;28;20370;-71
2022/10/19 07:53:26;;;;;;;15.13;6.15;;;14.40;99.90;;;;;;4967789;28;20027;-75
2022/10/19 07:55:52;;;;;;;16.73;6.05;;;14.60;99.90;;;;;;4965624;28;20042;-75
2022/10/19 07:58:18;;;;;;;13.38;6.03;;;14.70;99.90;;;;;;4963623;28;20089;-75
2022/10/19 08:00:44;;;;;;;17.10;6.50;;;14.80;99.90;;;;;;4967272;28;20169;-73
2022/10/19 08:03:09;;;;;;;14.77;6.07;;;14.90;99.90;;;;;;4965679;28;20034;-75
2022/10/19 08:05:35;;;;;;;18.05;6.88;;;14.80;99.90;;;;;;4966089;28;20527;-76
2022/10/19 08:08:01;;;;;;;21.23;8.10;;;14.80;99.90;;;;;;4967321;28;20509;-73
2022/10/19 08:10:27;;;;;;;17.35;6.88;;;14.80;99.90;;;;;;4966220;28;20073;-74
2022/10/19 08:12:52;;;;;;;13.52;6.18;;;14.80;99.90;;;;;;4963461;28;20190;-74
2022/10/19 08:15:18;;;;;;;16.15;7.30;;;14.80;99.90;;;;;;4969019;28;20061;-76
2022/10/19 08:17:43;;;;;;;18.45;7.00;;;14.70;99.90;;;;;;4966418;28;20049;-75
2022/10/19 08:20:09;;;;;;;15.35;6.00;;;14.70;99.90;;;;;;4962928;28;20066;-75
2022/10/19 08:22:35;;;;;;;16.83;7.00;;;14.80;99.90;;;;;;4969082;28;20038;-75
2022/10/19 08:25:01;;;;;;;23.23;9.60;;;14.70;99.90;;;;;;4964491;28;20034;-75
2022/10/19 08:27:28;;;;;;;17.92;7.82;;;14.80;99.90;;;;;;4960788;28;20445;-76
2022/10/19 08:29:53;;;;;;;18.63;8.32;;;14.80;99.90;;;;;;4964058;28;20398;-75
2022/10/19 08:32:19;;;;;;;25.30;8.05;;;14.80;99.90;;;;;;4966541;28;20482;-75
2022/10/19 08:34:45;;;;;;;19.83;8.45;;;14.80;99.90;;;;;;4950721;28;20098;-75
2022/10/19 08:37:11;;;;;;;17.98;7.05;;;14.80;99.90;;;;;;4926209;29;20056;-75
2022/10/19 08:39:36;;;;;;;18.67;7.30;;;14.90;99.90;;;;;;4932866;29;20042;-74
2022/10/19 08:42:07;;;;;;;18.33;7.25;;;14.90;99.90;;;;;;4948848;28;20125;-74
2022/10/19 08:44:50;;;;;;;19.85;6.95;;;14.90;99.90;;;;;;4949414;29;20126;-74
2022/10/19 08:47:50;;;;;;;14.90;6.95;;;15.00;99.90;;;;;;4942687;28;20043;-77
2022/10/19 08:50:18;;;;;;;18.73;6.95;;;15.00;99.90;;;;;;4946229;29;20464;-75
2022/10/19 08:52:48;;;;;;;14.80;6.22;;;15.00;99.90;;;;;;4953321;29;20458;-74
2022/10/19 08:55:17;;;;;;;16.52;6.18;;;15.00;99.90;;;;;;4951655;29;20043;-75
2022/10/19 08:57:55;;;;;;;16.52;7.10;;;15.10;99.90;;;;;;4951689;28;20466;-77
2022/10/19 09:00:42;;;;;;;16.33;6.82;;;15.10;99.90;;;;;;4936121;29;20113;-75
2022/10/19 09:03:30;;;;;;;12.88;6.57;;;15.30;99.90;;;;;;4935897;29;20047;-75
2022/10/19 09:06:11;;;;;;;13.43;6.18;;;15.50;99.90;;;;;;4949710;28;20106;-77
2022/10/19 09:08:38;;;;;;;13.82;6.38;;;15.70;99.90;;;;;;4950282;28;20118;-77
2022/10/19 09:11:07;;;;;;;14.98;6.40;;;15.90;99.90;;;;;;4951782;29;20098;-74
2022/10/19 09:13:42;;;;;;;15.60;6.80;;;16.00;99.90;;;;;;4952868;28;20028;-76
2022/10/19 09:16:13;;;;;;;15.68;6.47;;;16.10;99.90;;;;;;4951693;29;20102;-78
2022/10/19 09:18:41;;;;;;;16.40;6.20;;;16.20;99.90;;;;;;4952801;28;20149;-76
2022/10/19 09:21:14;;;;;;;15.27;6.72;;;16.40;99.90;;;;;;4951334;29;20027;-75
2022/10/19 09:23:59;;;;;;;14.65;6.30;;;16.40;99.90;;;;;;4953195;29;20035;-75
2022/10/19 09:26:29;;;;;;;15.80;6.28;;;16.60;99.90;;;;;;4934206;29;20044;-76
2022/10/19 09:28:57;;;;;;;16.58;6.70;;;16.80;99.90;;;;;;4934134;29;20031;-75
2022/10/19 09:31:31;;;;;;;14.93;6.50;;;16.80;99.90;;;;;;4943641;28;20027;-76
2022/10/19 09:34:06;;;;;;;16.95;6.57;;;16.80;99.90;;;;;;4953545;29;20046;-76
2022/10/19 09:36:41;;;;;;;17.77;6.28;;;16.90;99.90;;;;;;4966390;28;20077;-75
2022/10/19 09:39:11;;;;;;;14.52;5.80;;;16.90;99.90;;;;;;4955106;28;20058;-77
2022/10/19 09:41:48;;;;;;;14.13;5.93;;;16.90;99.90;;;;;;4972351;28;20085;-78
2022/10/19 09:44:15;;;;;;;13.27;5.85;;;16.90;99.90;;;;;;4971052;28;20638;-75
2022/10/19 09:46:53;;;;;;;13.70;5.75;;;16.90;99.90;;;;;;4971979;28;20085;-75
2022/10/19 09:49:41;;;;;;;16.20;6.63;;;17.00;99.90;;;;;;4972240;28;20141;-75
2022/10/19 09:52:38;;;;;;;16.65;5.68;;;17.10;99.90;;;;;;4953870;28;20034;-76
2022/10/19 09:55:06;;;;;;;13.50;5.72;;;17.20;99.90;;;;;;4969828;28;20027;-77
2022/10/19 09:57:32;;;;;;;14.07;5.95;;;17.10;99.90;;;;;;4972272;28;20054;-75
2022/10/19 09:59:58;;;;;;;10.18;5.47;;;17.10;99.90;;;;;;4971352;28;20049;-75
2022/10/19 10:02:32;;;;;;;12.75;5.57;;;17.10;99.90;;;;;;4971995;28;20031;-76
2022/10/19 10:05:05;;;;;;;11.32;5.45;;;17.10;99.90;;;;;;4946652;28;20035;-75
2022/10/19 10:07:36;;;;;;;13.57;5.25;;;17.10;99.90;;;;;;4952435;29;20031;-75
2022/10/19 10:10:20;;;;;;;14.57;5.80;;;17.10;99.90;;;;;;4957005;28;20121;-75
2022/10/19 10:12:46;;;;;;;12.88;5.32;;;17.20;99.90;;;;;;4971672;28;20081;-76
2022/10/19 10:15:18;;;;;;;10.88;5.18;;;17.40;99.90;;;;;;4971743;28;20034;-75
2022/10/19 10:17:47;;;;;;;15.27;5.70;;;17.50;99.90;;;;;;4972019;28;20073;-75
2022/10/19 10:20:22;;;;;;;15.15;5.60;;;17.60;99.90;;;;;;4971109;28;20145;-75
2022/10/19 10:23:00;;;;;;;11.68;5.03;;;17.80;99.90;;;;;;4971616;28;20038;-77
2022/10/19 10:25:32;;;;;;;11.43;4.88;;;17.80;99.90;;;;;;4971601;28;20106;-78
2022/10/19 10:28:21;;;;;;;11.52;4.47;;;18.40;99.90;;;;;;4971881;28;20026;-78
2022/10/19 10:30:52;;;;;;;9.88;4.45;;;18.70;98.40;;;;;;4971392;28;20042;-76
2022/10/19 10:33:25;;;;;;;13.35;4.70;;;18.60;98.60;;;;;;4969973;28;20043;-77
2022/10/19 10:35:54;;;;;;;13.45;4.88;;;18.40;98.90;;;;;;4956152;28;20086;-75
2022/10/19 10:38:26;;;;;;;13.98;4.50;;;18.30;98.20;;;;;;4952087;29;20024;-76
2022/10/19 10:41:07;;;;;;;13.38;4.60;;;18.10;99.30;;;;;;4969398;28;20039;-76
2022/10/19 10:43:35;;;;;;;13.43;4.00;;;17.90;99.90;;;;;;4970994;28;20034;-76
2022/10/19 10:46:24;;;;;;;16.67;4.60;;;17.80;99.90;;;;;;4969867;28;20050;-76
2022/10/19 10:48:54;;;;;;;12.43;4.50;;;18.30;99.90;;;;;;4971260;28;20054;-76
2022/10/19 10:51:33;;;;;;;9.35;3.83;;;18.40;99.60;;;;;;4968657;28;20031;-76
2022/10/19 10:54:16;;;;;;;12.90;3.95;;;18.30;99.60;;;;;;4956758;28;20038;-75
2022/10/19 10:56:44;;;;;;;10.80;3.63;;;18.10;99.90;;;;;;4966866;28;20038;-76
2022/10/19 10:59:27;;;;;;;13.27;3.97;;;18.00;99.90;;;;;;4969889;28;20098;-75
2022/10/19 11:02:11;;;;;;;10.63;3.97;;;18.10;99.90;;;;;;4969987;28;20034;-76
2022/10/19 11:04:41;;;;;;;11.50;3.88;;;18.20;99.90;;;;;;4969709;28;20089;-76
2022/10/19 11:07:27;;;;;;;10.52;3.95;;;18.30;99.40;;;;;;4951911;28;20727;-75
2022/10/19 11:09:57;;;;;;;10.50;4.25;;;18.40;98.90;;;;;;4966830;28;20046;-74
2022/10/19 11:12:34;;;;;;;15.00;3.97;;;18.40;98.80;;;;;;4990149;28;20037;-72
2022/10/19 11:15:10;;;;;;;11.38;3.17;;;18.50;99.40;;;;;;4962525;28;20038;-74
2022/10/19 11:17:39;;;;;;;10.00;3.35;;;18.60;99.90;;;;;;4972104;28;20036;-72
2022/10/19 11:20:12;;;;;;;12.77;3.78;;;18.70;99.40;;;;;;4951462;29;20514;-73
2022/10/19 11:22:51;;;;;;;10.88;3.63;;;18.70;98.90;;;;;;4951186;29;20038;-72
2022/10/19 11:25:24;;;;;;;11.98;3.72;;;18.70;99.10;;;;;;4968012;28;20042;-72
2022/10/19 11:28:21;;;;;;;15.25;3.92;;;18.80;99.20;;;;;;4984024;28;20041;-75
2022/10/19 11:31:03;;;;;;;13.52;3.78;;;18.90;99.30;;;;;;4980712;28;20129;-71
2022/10/19 11:33:52;;;;;;;12.43;3.65;;;19.00;98.80;;;;;;4972036;28;20062;-72
2022/10/19 11:36:49;;;;;;;12.00;3.90;;;19.00;98.70;;;;;;4968443;28;20109;-72
2022/10/19 11:39:32;;;;;;;14.45;3.95;;;18.80;97.60;;;;;;4968886;28;20046;-72
2022/10/19 11:42:23;;;;;;;12.10;3.60;;;18.60;97.80;;;;;;4970392;28;20143;-72
2022/10/19 11:44:54;;;;;;;14.75;4.00;;;18.40;99.40;;;;;;4969806;28;20031;-73
2022/10/19 11:47:28;;;;;;;13.50;4.05;;;18.30;99.60;;;;;;4969994;28;20097;-72
2022/10/19 11:50:24;;;;;;;10.07;4.00;;;18.20;99.90;;;;;;4969618;28;20027;-72
2022/10/19 11:52:57;;;;;;;12.43;3.97;;;18.20;99.90;;;;;;4970030;28;20039;-73
2022/10/19 11:55:38;;;;;;;12.20;3.85;;;18.30;99.90;;;;;;4966402;28;20031;-75
2022/10/19 11:58:38;;;;;;;12.05;3.83;;;18.40;99.90;;;;;;4971209;28;20038;-75
2022/10/19 12:02:01;;;;;;;12.95;4.72;;;18.70;99.50;;;;;;4964424;28;20086;-75
2022/10/19 12:04:38;;;;;;;12.63;4.28;;;18.90;97.80;;;;;;4925515;29;20035;-74
2022/10/19 12:07:25;;;;;;;15.05;4.82;;;18.90;97.90;;;;;;4894282;29;20559;-74
2022/10/19 12:10:02;;;;;;;11.18;4.10;;;19.00;97.10;;;;;;4918044;29;20075;-74
2022/10/19 12:12:32;;;;;;;12.02;4.45;;;19.00;97.40;;;;;;4914719;29;20043;-73
2022/10/19 12:15:10;;;;;;;13.63;4.20;;;19.00;96.80;;;;;;4922357;29;20040;-75
2022/10/19 12:17:38;;;;;;;12.45;3.90;;;19.10;98.00;;;;;;4927027;29;20046;-73
2022/10/19 12:20:14;;;;;;;12.82;3.95;;;19.10;97.80;;;;;;4924981;29;20040;-74
2022/10/19 12:22:41;;;;;;;11.80;4.10;;;19.20;96.80;;;;;;4923340;29;20043;-74
2022/10/19 12:25:13;;;;;;;12.38;4.65;;;19.20;96.60;;;;;;4927303;29;20506;-74
2022/10/19 12:27:40;;;;;;;13.45;4.35;;;19.10;95.50;;;;;;4912723;29;20095;-74
2022/10/19 12:30:13;;;;;;;9.35;3.55;;;18.90;96.40;;;;;;4923272;29;20042;-73
2022/10/19 12:33:04;;;;;;;10.05;3.90;;;18.80;96.50;;;;;;4919181;29;20147;-76
2022/10/19 12:35:47;;;;;;;16.13;4.00;;;18.70;96.50;;;;;;4950050;28;20062;-73
2022/10/19 12:38:36;;;;;;;10.00;3.67;;;18.60;97.50;;;;;;4969194;28;20587;-74
2022/10/19 12:41:50;;;;;;;13.88;4.13;;;18.60;97.70;;;;;;4964250;28;20133;-75
2022/10/19 12:44:40;;;;;;;13.48;4.30;;;18.70;99.20;;;;;;4963777;28;20038;-74
2022/10/19 12:47:10;;;;;;;;;;;18.80;98.50;;;;;;4964508;28;20185;-75
2022/10/19 12:49:45;;;;;;;17.75;4.90;;;19.00;96.70;;;;;;4965913;28;19914;-74
2022/10/19 12:52:12;;;;;;;10.55;4.07;;;19.00;96.50;;;;;;4965063;28;20050;-75
2022/10/19 12:54:40;;;;;;;12.85;4.35;;;18.90;97.10;;;;;;4951755;28;20031;-72
2022/10/19 12:57:39;;;;;;;11.40;5.03;;;18.90;96.50;;;;;;4966324;28;20035;-72